sensor_id;sensor_type;location;lat;lon;timestamp;pressure;altitude;pressure_sealevel;temperature;humidity
5298;BME280;14738;42.668;23.250;2023-02-08T00:01:45;48719.88;;;-141.90;57.07
5298;BME280;14738;42.668;23.250;2023-02-08T00:04:10;48707.94;;;-141.90;57.07
5298;BME280;14738;42.668;23.250;2023-02-08T00:06:36;48749.66;;;-141.90;57.10
5298;BME280;14738;42.668;23.250;2023-02-08T00:09:01;48717.88;;;-141.90;56.58
5298;BME280;14738;42.668;23.250;2023-02-08T00:11:27;48747.66;;;-141.90;55.92
5298;BME280;14738;42.668;23.250;2023-02-08T00:13:53;48719.88;;;-141.90;56.10
5298;BME280;14738;42.668;23.250;2023-02-08T00:16:18;48737.72;;;-141.90;56.21
5298;BME280;14738;42.668;23.250;2023-02-08T00:18:44;48755.59;;;-141.90;55.66
5298;BME280;14738;42.668;23.250;2023-02-08T00:21:11;48719.88;;;-141.90;55.62
5298;BME280;14738;42.668;23.250;2023-02-08T00:23:36;48711.91;;;-141.90;55.99
5298;BME280;14738;42.668;23.250;2023-02-08T00:26:02;48745.69;;;-141.90;56.31
5298;BME280;14738;42.668;23.250;2023-02-08T00:28:27;48723.84;;;-141.90;56.26
5298;BME280;14738;42.668;23.250;2023-02-08T00:30:53;48729.78;;;-141.90;55.94
5298;BME280;14738;42.668;23.250;2023-02-08T00:33:18;48723.84;;;-141.90;55.80
5298;BME280;14738;42.668;23.250;2023-02-08T00:35:43;48733.75;;;-141.90;55.51
5298;BME280;14738;42.668;23.250;2023-02-08T00:38:09;48711.91;;;-141.90;54.50
5298;BME280;14738;42.668;23.250;2023-02-08T00:40:34;48727.81;;;-141.90;55.48
5298;BME280;14738;42.668;23.250;2023-02-08T00:43:00;48715.91;;;-141.90;55.24
5298;BME280;14738;42.668;23.250;2023-02-08T00:45:26;48733.75;;;-141.90;55.65
5298;BME280;14738;42.668;23.250;2023-02-08T00:47:52;48711.91;;;-141.90;55.08
5298;BME280;14738;42.668;23.250;2023-02-08T00:50:17;48755.59;;;-141.90;55.06
5298;BME280;14738;42.668;23.250;2023-02-08T00:52:43;48739.72;;;-141.90;55.06
5298;BME280;14738;42.668;23.250;2023-02-08T00:55:08;48707.94;;;-141.90;55.34
5298;BME280;14738;42.668;23.250;2023-02-08T00:57:34;48731.78;;;-141.90;54.94
5298;BME280;14738;42.668;23.250;2023-02-08T00:59:59;48747.66;;;-141.90;54.53
5298;BME280;14738;42.668;23.250;2023-02-08T01:02:25;48735.75;;;-141.90;54.21
5298;BME280;14738;42.668;23.250;2023-02-08T01:04:51;48733.75;;;-141.90;54.28
5298;BME280;14738;42.668;23.250;2023-02-08T01:07:16;48719.88;;;-141.90;54.27
5298;BME280;14738;42.668;23.250;2023-02-08T01:09:42;48733.75;;;-141.90;54.23
5298;BME280;14738;42.668;23.250;2023-02-08T01:12:07;48725.81;;;-141.90;54.20
5298;BME280;14738;42.668;23.250;2023-02-08T01:14:33;48715.91;;;-141.90;54.38
5298;BME280;14738;42.668;23.250;2023-02-08T01:16:58;48719.88;;;-141.90;54.44
5298;BME280;14738;42.668;23.250;2023-02-08T01:19:24;48737.72;;;-141.90;54.51
5298;BME280;14738;42.668;23.250;2023-02-08T01:21:49;48715.91;;;-141.90;54.68
5298;BME280;14738;42.668;23.250;2023-02-08T01:24:15;48709.94;;;-141.90;54.48
5298;BME280;14738;42.668;23.250;2023-02-08T01:26:41;48721.84;;;-141.90;54.60
5298;BME280;14738;42.668;23.250;2023-02-08T01:29:07;48686.13;;;-141.90;54.65
5298;BME280;14738;42.668;23.250;2023-02-08T01:31:35;48731.78;;;-141.90;54.57
5298;BME280;14738;42.668;23.250;2023-02-08T01:34:02;48723.84;;;-141.90;54.19
5298;BME280;14738;42.668;23.250;2023-02-08T01:36:29;48739.72;;;-141.90;54.03
5298;BME280;14738;42.668;23.250;2023-02-08T01:38:55;48719.88;;;-141.90;53.91
5298;BME280;14738;42.668;23.250;2023-02-08T01:41:34;48727.81;;;-141.90;53.87
5298;BME280;14738;42.668;23.250;2023-02-08T01:45:14;48703.97;;;-141.90;53.82
5298;BME280;14738;42.668;23.250;2023-02-08T01:46:53;48700.00;;;-141.90;53.91
5298;BME280;14738;42.668;23.250;2023-02-08T01:49:28;48777.44;;;-141.90;54.28
5298;BME280;14738;42.668;23.250;2023-02-08T01:51:58;48723.84;;;-141.90;53.45
5298;BME280;14738;42.668;23.250;2023-02-08T01:54:29;48735.75;;;-141.90;54.29
5298;BME280;14738;42.668;23.250;2023-02-08T01:56:55;48763.53;;;-141.90;54.38
5298;BME280;14738;42.668;23.250;2023-02-08T01:59:49;48727.81;;;-141.90;54.40
5298;BME280;14738;42.668;23.250;2023-02-08T02:02:18;48743.69;;;-141.90;54.58
5298;BME280;14738;42.668;23.250;2023-02-08T02:04:44;48709.94;;;-141.90;54.52
5298;BME280;14738;42.668;23.250;2023-02-08T02:07:10;48745.69;;;-141.90;53.69
5298;BME280;14738;42.668;23.250;2023-02-08T02:09:44;48721.84;;;-141.90;54.34
5298;BME280;14738;42.668;23.250;2023-02-08T02:12:12;48715.91;;;-141.90;53.86
5298;BME280;14738;42.668;23.250;2023-02-08T02:14:38;48719.88;;;-141.90;54.23
5298;BME280;14738;42.668;23.250;2023-02-08T02:17:04;48723.84;;;-141.90;54.19
5298;BME280;14738;42.668;23.250;2023-02-08T02:24:59;48725.81;;;-141.90;55.29
5298;BME280;14738;42.668;23.250;2023-02-08T02:27:45;48715.91;;;-141.90;54.97
5298;BME280;14738;42.668;23.250;2023-02-08T02:38:25;48707.94;;;-141.90;57.78
5298;BME280;14738;42.668;23.250;2023-02-08T02:43:22;48731.78;;;-141.90;59.18
5298;BME280;14738;42.668;23.250;2023-02-08T02:46:42;48727.81;;;-141.90;60.56
5298;BME280;14738;42.668;23.250;2023-02-08T02:49:23;48727.81;;;-141.90;59.34
5298;BME280;14738;42.668;23.250;2023-02-08T02:54:23;48717.88;;;-141.90;60.93
5298;BME280;14738;42.668;23.250;2023-02-08T02:56:56;48703.97;;;-141.90;60.39
5298;BME280;14738;42.668;23.250;2023-02-08T02:59:23;48725.81;;;-141.90;61.25
5298;BME280;14738;42.668;23.250;2023-02-08T03:01:49;48735.75;;;-141.90;61.51
5298;BME280;14738;42.668;23.250;2023-02-08T03:04:54;48717.88;;;-141.90;63.63
5298;BME280;14738;42.668;23.250;2023-02-08T03:15:58;48719.88;;;-141.90;66.31
5298;BME280;14738;42.668;23.250;2023-02-08T03:21:18;48765.53;;;-141.90;65.21
5298;BME280;14738;42.668;23.250;2023-02-08T03:26:36;48733.75;;;-141.90;67.18
5298;BME280;14738;42.668;23.250;2023-02-08T03:36:38;48747.66;;;-141.90;67.77
5298;BME280;14738;42.668;23.250;2023-02-08T03:39:10;48743.69;;;-141.90;68.06
5298;BME280;14738;42.668;23.250;2023-02-08T03:41:39;48739.72;;;-141.90;66.73
5298;BME280;14738;42.668;23.250;2023-02-08T03:44:12;48737.72;;;-141.90;68.45
5298;BME280;14738;42.668;23.250;2023-02-08T03:46:55;48725.81;;;-141.90;70.17
5298;BME280;14738;42.668;23.250;2023-02-08T03:49:26;48749.66;;;-141.90;70.89
5298;BME280;14738;42.668;23.250;2023-02-08T03:51:56;48735.75;;;-141.90;70.84
5298;BME280;14738;42.668;23.250;2023-02-08T03:54:25;48755.59;;;-141.90;72.05
5298;BME280;14738;42.668;23.250;2023-02-08T03:57:18;48747.66;;;-141.90;71.73
5298;BME280;14738;42.668;23.250;2023-02-08T03:59:51;48727.81;;;-141.90;72.38
5298;BME280;14738;42.668;23.250;2023-02-08T04:02:20;48769.50;;;-141.90;75.30
5298;BME280;14738;42.668;23.250;2023-02-08T04:04:48;48729.78;;;-141.90;76.49
5298;BME280;14738;42.668;23.250;2023-02-08T04:07:18;48711.91;;;-141.90;76.72
5298;BME280;14738;42.668;23.250;2023-02-08T04:09:44;48751.63;;;-141.90;76.70
5298;BME280;14738;42.668;23.250;2023-02-08T04:12:09;48721.84;;;-141.90;76.76
5298;BME280;14738;42.668;23.250;2023-02-08T04:14:35;48755.59;;;-141.90;77.17
5298;BME280;14738;42.668;23.250;2023-02-08T04:17:00;48735.75;;;-141.90;78.34
5298;BME280;14738;42.668;23.250;2023-02-08T04:19:26;48731.78;;;-141.90;80.80
5298;BME280;14738;42.668;23.250;2023-02-08T04:21:51;48731.78;;;-141.90;81.42
5298;BME280;14738;42.668;23.250;2023-02-08T04:24:16;48757.59;;;-141.90;81.06
5298;BME280;14738;42.668;23.250;2023-02-08T04:26:42;48731.78;;;-141.90;82.40
5298;BME280;14738;42.668;23.250;2023-02-08T04:29:07;48743.69;;;-141.90;81.89
5298;BME280;14738;42.668;23.250;2023-02-08T04:31:33;48761.56;;;-141.90;84.34
5298;BME280;14738;42.668;23.250;2023-02-08T04:33:58;48747.66;;;-141.90;83.13
5298;BME280;14738;42.668;23.250;2023-02-08T04:36:23;48763.53;;;-141.90;83.49
5298;BME280;14738;42.668;23.250;2023-02-08T04:38:49;48719.88;;;-141.90;84.34
5298;BME280;14738;42.668;23.250;2023-02-08T04:41:14;48747.66;;;-141.90;85.78
5298;BME280;14738;42.668;23.250;2023-02-08T04:43:40;48727.81;;;-141.90;85.38
5298;BME280;14738;42.668;23.250;2023-02-08T04:46:05;48757.59;;;-141.90;85.40
5298;BME280;14738;42.668;23.250;2023-02-08T04:48:30;48751.63;;;-141.90;90.47
5298;BME280;14738;42.668;23.250;2023-02-08T04:50:57;48783.41;;;-141.90;89.70
5298;BME280;14738;42.668;23.250;2023-02-08T04:53:24;48735.75;;;-141.90;89.75
5298;BME280;14738;42.668;23.250;2023-02-08T04:55:50;48747.66;;;-141.90;89.27
5298;BME280;14738;42.668;23.250;2023-02-08T04:58:16;48747.66;;;-141.90;90.15
5298;BME280;14738;42.668;23.250;2023-02-08T05:00:42;48763.53;;;-141.90;89.97
5298;BME280;14738;42.668;23.250;2023-02-08T05:03:07;48763.53;;;-141.90;90.01
5298;BME280;14738;42.668;23.250;2023-02-08T05:05:33;48735.75;;;-141.90;92.88
5298;BME280;14738;42.668;23.250;2023-02-08T05:07:58;48765.53;;;-141.90;95.51
5298;BME280;14738;42.668;23.250;2023-02-08T05:10:24;48755.59;;;-141.90;100.00
5298;BME280;14738;42.668;23.250;2023-02-08T05:12:50;48803.25;;;-141.90;100.00
5298;BME280;14738;42.668;23.250;2023-02-08T05:15:15;48767.50;;;-141.90;100.00
5298;BME280;14738;42.668;23.250;2023-02-08T05:17:41;48781.41;;;-141.90;100.00
5298;BME280;14738;42.668;23.250;2023-02-08T05:20:07;48775.47;;;-141.90;100.00
5298;BME280;14738;42.668;23.250;2023-02-08T05:22:33;48783.41;;;-141.90;100.00
5298;BME280;14738;42.668;23.250;2023-02-08T05:24:58;48763.53;;;-141.90;100.00
5298;BME280;14738;42.668;23.250;2023-02-08T05:27:24;48743.69;;;-141.90;100.00
5298;BME280;14738;42.668;23.250;2023-02-08T05:29:49;48747.66;;;-141.90;100.00
5298;BME280;14738;42.668;23.250;2023-02-08T05:32:15;48773.47;;;-141.90;100.00
5298;BME280;14738;42.668;23.250;2023-02-08T05:34:40;48749.66;;;-141.90;100.00
5298;BME280;14738;42.668;23.250;2023-02-08T05:37:06;48775.47;;;-141.90;97.45
5298;BME280;14738;42.668;23.250;2023-02-08T05:39:31;48753.63;;;-141.90;91.43
5298;BME280;14738;42.668;23.250;2023-02-08T05:41:57;48771.47;;;-141.90;89.76
5298;BME280;14738;42.668;23.250;2023-02-08T05:44:22;48795.31;;;-141.90;91.77
5298;BME280;14738;42.668;23.250;2023-02-08T05:46:48;48751.63;;;-141.90;95.26
5298;BME280;14738;42.668;23.250;2023-02-08T05:49:13;48769.50;;;-141.90;96.46
5298;BME280;14738;42.668;23.250;2023-02-08T05:51:38;48761.56;;;-141.90;99.25
5298;BME280;14738;42.668;23.250;2023-02-08T05:54:04;48787.38;;;-141.90;100.00
5298;BME280;14738;42.668;23.250;2023-02-08T05:56:30;48755.59;;;-141.90;99.04
5298;BME280;14738;42.668;23.250;2023-02-08T05:58:55;48739.72;;;-141.90;97.40
5298;BME280;14738;42.668;23.250;2023-02-08T06:01:21;48767.50;;;-141.90;96.41
5298;BME280;14738;42.668;23.250;2023-02-08T06:03:46;48733.75;;;-141.90;93.13
5298;BME280;14738;42.668;23.250;2023-02-08T06:06:12;48723.84;;;-141.90;83.29
5298;BME280;14738;42.668;23.250;2023-02-08T06:08:38;48725.81;;;-141.90;66.59
5298;BME280;14738;42.668;23.250;2023-02-08T06:11:04;48715.91;;;-141.90;59.61
5298;BME280;14738;42.668;23.250;2023-02-08T06:13:30;48700.00;;;-141.90;56.41
5298;BME280;14738;42.668;23.250;2023-02-08T06:15:55;48696.03;;;-141.90;54.50
5298;BME280;14738;42.668;23.250;2023-02-08T06:18:21;48676.19;;;-141.90;52.88
5298;BME280;14738;42.668;23.250;2023-02-08T06:20:47;48707.94;;;-141.90;51.42
5298;BME280;14738;42.668;23.250;2023-02-08T06:23:12;48676.19;;;-141.90;50.71
5298;BME280;14738;42.668;23.250;2023-02-08T06:25:38;48682.13;;;-141.90;49.78
5298;BME280;14738;42.668;23.250;2023-02-08T06:28:04;48668.25;;;-141.90;48.80
5298;BME280;14738;42.668;23.250;2023-02-08T06:30:29;48700.00;;;-141.90;47.90
5298;BME280;14738;42.668;23.250;2023-02-08T06:32:55;48688.09;;;-141.90;48.35
5298;BME280;14738;42.668;23.250;2023-02-08T06:35:21;48660.31;;;-141.90;47.83
5298;BME280;14738;42.668;23.250;2023-02-08T06:37:46;48690.09;;;-141.90;47.33
5298;BME280;14738;42.668;23.250;2023-02-08T06:40:12;48666.25;;;-141.90;47.40
5298;BME280;14738;42.668;23.250;2023-02-08T06:42:37;48688.09;;;-141.90;46.48
5298;BME280;14738;42.668;23.250;2023-02-08T06:45:03;48660.31;;;-141.90;47.13
5298;BME280;14738;42.668;23.250;2023-02-08T06:47:29;48680.16;;;-141.90;47.61
5298;BME280;14738;42.668;23.250;2023-02-08T06:49:54;48656.34;;;-141.90;48.05
5298;BME280;14738;42.668;23.250;2023-02-08T06:52:20;48703.97;;;-141.90;48.82
5298;BME280;14738;42.668;23.250;2023-02-08T06:54:46;48700.00;;;-141.90;49.56
5298;BME280;14738;42.668;23.250;2023-02-08T06:57:11;48684.13;;;-141.90;50.75
5298;BME280;14738;42.668;23.250;2023-02-08T06:59:40;48707.94;;;-141.90;50.24
5298;BME280;14738;42.668;23.250;2023-02-08T07:02:14;48686.13;;;-141.90;50.83
5298;BME280;14738;42.668;23.250;2023-02-08T07:04:40;48743.69;;;-141.90;50.51
5298;BME280;14738;42.668;23.250;2023-02-08T07:07:05;48702.00;;;-141.90;50.02
5298;BME280;14738;42.668;23.250;2023-02-08T07:09:34;48717.88;;;-141.90;49.90
5298;BME280;14738;42.668;23.250;2023-02-08T07:12:00;48688.09;;;-141.90;50.05
5298;BME280;14738;42.668;23.250;2023-02-08T07:14:33;48688.09;;;-141.90;50.22
5298;BME280;14738;42.668;23.250;2023-02-08T07:17:00;48725.81;;;-141.90;50.35
5298;BME280;14738;42.668;23.250;2023-02-08T07:19:26;48739.72;;;-141.90;50.92
5298;BME280;14738;42.668;23.250;2023-02-08T07:21:51;48644.41;;;-141.90;50.34
5298;BME280;14738;42.668;23.250;2023-02-08T07:24:17;48702.00;;;-141.90;50.63
5298;BME280;14738;42.668;23.250;2023-02-08T07:26:42;48727.81;;;-141.90;50.49
5298;BME280;14738;42.668;23.250;2023-02-08T07:29:08;48680.16;;;-141.90;49.61
5298;BME280;14738;42.668;23.250;2023-02-08T07:31:33;48694.06;;;-141.90;49.41
5298;BME280;14738;42.668;23.250;2023-02-08T07:33:58;48696.03;;;-141.90;49.19
5298;BME280;14738;42.668;23.250;2023-02-08T07:36:24;48692.06;;;-141.90;48.30
5298;BME280;14738;42.668;23.250;2023-02-08T07:38:49;48690.09;;;-141.90;48.00
5298;BME280;14738;42.668;23.250;2023-02-08T07:41:15;48692.06;;;-141.90;47.95
5298;BME280;14738;42.668;23.250;2023-02-08T07:43:43;48680.16;;;-141.90;47.51
5298;BME280;14738;42.668;23.250;2023-02-08T07:46:11;48684.13;;;-141.90;47.10
5298;BME280;14738;42.668;23.250;2023-02-08T07:48:37;48668.25;;;-141.90;46.49
5298;BME280;14738;42.668;23.250;2023-02-08T07:51:03;48692.06;;;-141.90;44.60
5298;BME280;14738;42.668;23.250;2023-02-08T07:53:29;48674.19;;;-141.90;44.14
5298;BME280;14738;42.668;23.250;2023-02-08T07:55:55;48692.06;;;-141.90;44.89
5298;BME280;14738;42.668;23.250;2023-02-08T07:58:21;48694.06;;;-141.90;44.81
5298;BME280;14738;42.668;23.250;2023-02-08T08:00:46;48640.44;;;-141.90;45.38
5298;BME280;14738;42.668;23.250;2023-02-08T08:03:12;48684.13;;;-141.90;45.40
5298;BME280;14738;42.668;23.250;2023-02-08T08:05:39;48703.97;;;-141.90;44.91
5298;BME280;14738;42.668;23.250;2023-02-08T08:08:06;48684.13;;;-141.90;45.16
5298;BME280;14738;42.668;23.250;2023-02-08T08:10:31;48672.22;;;-141.90;44.79
5298;BME280;14738;42.668;23.250;2023-02-08T08:12:56;48690.09;;;-141.90;44.74
5298;BME280;14738;42.668;23.250;2023-02-08T08:15:22;48688.09;;;-141.90;44.39
5298;BME280;14738;42.668;23.250;2023-02-08T08:17:47;48674.19;;;-141.90;44.54
5298;BME280;14738;42.668;23.250;2023-02-08T08:20:13;48696.03;;;-141.90;44.50
5298;BME280;14738;42.668;23.250;2023-02-08T08:22:38;48678.16;;;-141.90;44.67
5298;BME280;14738;42.668;23.250;2023-02-08T08:25:04;48688.09;;;-141.90;44.85
5298;BME280;14738;42.668;23.250;2023-02-08T08:27:29;48664.28;;;-141.90;45.38
5298;BME280;14738;42.668;23.250;2023-02-08T08:29:55;48680.16;;;-141.90;45.24
5298;BME280;14738;42.668;23.250;2023-02-08T08:32:20;48662.28;;;-141.90;45.05
5298;BME280;14738;42.668;23.250;2023-02-08T08:34:46;48660.31;;;-141.90;45.17
5298;BME280;14738;42.668;23.250;2023-02-08T08:37:11;48674.19;;;-141.90;43.76
5298;BME280;14738;42.668;23.250;2023-02-08T08:39:36;48656.34;;;-141.90;44.54
5298;BME280;14738;42.668;23.250;2023-02-08T08:42:02;48678.16;;;-141.90;43.17
5298;BME280;14738;42.668;23.250;2023-02-08T08:44:29;48648.38;;;-141.90;43.00
5298;BME280;14738;42.668;23.250;2023-02-08T08:46:58;48664.28;;;-141.90;42.41
5298;BME280;14738;42.668;23.250;2023-02-08T08:49:26;48654.34;;;-141.90;43.79
5298;BME280;14738;42.668;23.250;2023-02-08T08:51:52;48664.28;;;-141.90;43.95
5298;BME280;14738;42.668;23.250;2023-02-08T08:54:18;48660.31;;;-141.90;43.48
5298;BME280;14738;42.668;23.250;2023-02-08T08:56:44;48680.16;;;-141.90;43.75
5298;BME280;14738;42.668;23.250;2023-02-08T08:59:09;48676.19;;;-141.90;42.58
5298;BME280;14738;42.668;23.250;2023-02-08T09:01:34;48616.63;;;-141.90;42.78
5298;BME280;14738;42.668;23.250;2023-02-08T09:04:00;48670.22;;;-141.90;43.31
5298;BME280;14738;42.668;23.250;2023-02-08T09:06:26;48676.19;;;-141.90;43.62
5298;BME280;14738;42.668;23.250;2023-02-08T09:08:51;48652.38;;;-141.90;42.72
5298;BME280;14738;42.668;23.250;2023-02-08T09:11:16;48632.50;;;-141.90;41.71
5298;BME280;14738;42.668;23.250;2023-02-08T09:13:42;48656.34;;;-141.90;42.80
5298;BME280;14738;42.668;23.250;2023-02-08T09:16:17;48638.47;;;-141.90;41.42
5298;BME280;14738;42.668;23.250;2023-02-08T09:18:43;48640.44;;;-141.90;42.15
5298;BME280;14738;42.668;23.250;2023-02-08T09:21:18;48652.38;;;-141.90;41.91
5298;BME280;14738;42.668;23.250;2023-02-08T09:23:44;48644.41;;;-141.90;42.03
5298;BME280;14738;42.668;23.250;2023-02-08T09:26:13;48662.28;;;-141.90;42.30
5298;BME280;14738;42.668;23.250;2023-02-08T09:28:39;48707.94;;;-141.90;42.72
5298;BME280;14738;42.668;23.250;2023-02-08T09:31:32;48664.28;;;-141.90;42.61
5298;BME280;14738;42.668;23.250;2023-02-08T09:33:59;48672.22;;;-141.90;42.19
5298;BME280;14738;42.668;23.250;2023-02-08T09:36:28;48656.34;;;-141.90;42.09
5298;BME280;14738;42.668;23.250;2023-02-08T09:38:56;48658.31;;;-141.90;42.28
5298;BME280;14738;42.668;23.250;2023-02-08T09:48:37;48652.38;;;-141.90;42.53
5298;BME280;14738;42.668;23.250;2023-02-08T09:51:20;48652.38;;;-141.90;43.13
5298;BME280;14738;42.668;23.250;2023-02-08T09:53:53;48640.44;;;-141.90;42.92
5298;BME280;14738;42.668;23.250;2023-02-08T09:56:35;48654.34;;;-141.90;42.42
5298;BME280;14738;42.668;23.250;2023-02-08T09:59:05;48648.38;;;-141.90;42.17
5298;BME280;14738;42.668;23.250;2023-02-08T10:01:33;48684.13;;;-141.90;41.91
5298;BME280;14738;42.668;23.250;2023-02-08T10:06:31;48660.31;;;-141.90;41.39
5298;BME280;14738;42.668;23.250;2023-02-08T10:09:02;48606.69;;;-141.90;40.53
5298;BME280;14738;42.668;23.250;2023-02-08T10:14:37;48644.41;;;-141.90;39.61
5298;BME280;14738;42.668;23.250;2023-02-08T10:26:04;48656.34;;;-141.90;39.73
5298;BME280;14738;42.668;23.250;2023-02-08T10:36:54;48600.75;;;-141.90;38.78
5298;BME280;14738;42.668;23.250;2023-02-08T10:39:27;48616.63;;;-141.90;38.08
5298;BME280;14738;42.668;23.250;2023-02-08T10:41:54;48590.81;;;-141.90;37.04
5298;BME280;14738;42.668;23.250;2023-02-08T10:44:29;48614.63;;;-141.90;36.57
5298;BME280;14738;42.668;23.250;2023-02-08T10:52:25;48624.56;;;-141.90;37.13
5298;BME280;14738;42.668;23.250;2023-02-08T10:54:51;48606.69;;;-141.90;36.13
5298;BME280;14738;42.668;23.250;2023-02-08T10:57:21;48604.72;;;-141.90;36.41
5298;BME280;14738;42.668;23.250;2023-02-08T10:59:50;48624.56;;;-141.90;36.83
5298;BME280;14738;42.668;23.250;2023-02-08T11:02:30;48576.91;;;-141.90;37.65
5298;BME280;14738;42.668;23.250;2023-02-08T11:07:23;48632.50;;;-141.90;36.96
5298;BME280;14738;42.668;23.250;2023-02-08T11:09:49;48602.72;;;-141.90;36.83
5298;BME280;14738;42.668;23.250;2023-02-08T11:12:19;48624.56;;;-141.90;38.60
5298;BME280;14738;42.668;23.250;2023-02-08T11:14:52;48628.53;;;-141.90;40.17
5298;BME280;14738;42.668;23.250;2023-02-08T11:17:30;48644.41;;;-141.90;40.07
5298;BME280;14738;42.668;23.250;2023-02-08T11:19:57;48616.63;;;-141.90;39.64
5298;BME280;14738;42.668;23.250;2023-02-08T11:22:25;48626.56;;;-141.90;41.10
5298;BME280;14738;42.668;23.250;2023-02-08T11:25:03;48666.25;;;-141.90;40.54
5298;BME280;14738;42.668;23.250;2023-02-08T11:27:35;48680.16;;;-141.90;41.26
5298;BME280;14738;42.668;23.250;2023-02-08T11:32:43;48630.53;;;-141.90;41.45
5298;BME280;14738;42.668;23.250;2023-02-08T11:35:24;48606.69;;;-141.90;41.86
5298;BME280;14738;42.668;23.250;2023-02-08T11:37:52;48654.34;;;-141.90;42.66
5298;BME280;14738;42.668;23.250;2023-02-08T11:40:22;48636.47;;;-141.90;43.20
5298;BME280;14738;42.668;23.250;2023-02-08T11:42:49;48676.19;;;-141.90;42.99
5298;BME280;14738;42.668;23.250;2023-02-08T11:45:30;48638.47;;;-141.90;43.35
5298;BME280;14738;42.668;23.250;2023-02-08T11:47:57;48652.38;;;-141.90;43.57
5298;BME280;14738;42.668;23.250;2023-02-08T11:50:29;48640.44;;;-141.90;43.75
5298;BME280;14738;42.668;23.250;2023-02-08T11:53:27;48646.41;;;-141.90;43.51
5298;BME280;14738;42.668;23.250;2023-02-08T11:56:18;48658.31;;;-141.90;43.63
5298;BME280;14738;42.668;23.250;2023-02-08T11:58:59;48640.44;;;-141.90;43.10
5298;BME280;14738;42.668;23.250;2023-02-08T12:01:29;48650.38;;;-141.90;43.26
5298;BME280;14738;42.668;23.250;2023-02-08T12:03:55;48632.50;;;-141.90;42.61
5298;BME280;14738;42.668;23.250;2023-02-08T12:11:54;48660.31;;;-141.90;42.99
5298;BME280;14738;42.668;23.250;2023-02-08T12:22:26;48644.41;;;-141.90;42.86
5298;BME280;14738;42.668;23.250;2023-02-08T12:25:20;48686.13;;;-141.90;42.66
5298;BME280;14738;42.668;23.250;2023-02-08T12:28:09;48638.47;;;-141.90;42.63
5298;BME280;14738;42.668;23.250;2023-02-08T12:36:21;48652.38;;;-141.90;42.31
5298;BME280;14738;42.668;23.250;2023-02-08T12:42:27;48652.38;;;-141.90;41.81
5298;BME280;14738;42.668;23.250;2023-02-08T12:52:40;48652.38;;;-141.90;41.05
5298;BME280;14738;42.668;23.250;2023-02-08T12:57:58;48668.25;;;-141.90;39.83
5298;BME280;14738;42.668;23.250;2023-02-08T13:00:29;48678.16;;;-141.90;39.99
5298;BME280;14738;42.668;23.250;2023-02-08T13:06:16;48616.63;;;-141.90;38.27
5298;BME280;14738;42.668;23.250;2023-02-08T13:08:56;48656.34;;;-141.90;38.65
5298;BME280;14738;42.668;23.250;2023-02-08T13:14:01;48642.44;;;-141.90;38.74
5298;BME280;14738;42.668;23.250;2023-02-08T13:16:33;48650.38;;;-141.90;38.87
5298;BME280;14738;42.668;23.250;2023-02-08T13:19:25;48648.38;;;-141.90;39.10
5298;BME280;14738;42.668;23.250;2023-02-08T13:21:53;48682.13;;;-141.90;38.08
5298;BME280;14738;42.668;23.250;2023-02-08T13:24:35;48658.31;;;-141.90;37.80
5298;BME280;14738;42.668;23.250;2023-02-08T13:27:02;48644.41;;;-141.90;38.09
5298;BME280;14738;42.668;23.250;2023-02-08T13:29:31;48628.53;;;-141.90;38.06
5298;BME280;14738;42.668;23.250;2023-02-08T13:32:09;48670.22;;;-141.90;37.55
5298;BME280;14738;42.668;23.250;2023-02-08T13:34:43;48664.28;;;-141.90;37.67
5298;BME280;14738;42.668;23.250;2023-02-08T13:37:30;48680.16;;;-141.90;37.77
5298;BME280;14738;42.668;23.250;2023-02-08T13:42:34;48612.66;;;-141.90;38.00
5298;BME280;14738;42.668;23.250;2023-02-08T13:45:02;48644.41;;;-141.90;38.54
5298;BME280;14738;42.668;23.250;2023-02-08T13:47:46;48672.22;;;-141.90;38.39
5298;BME280;14738;42.668;23.250;2023-02-08T13:53:04;48656.34;;;-141.90;39.95
5298;BME280;14738;42.668;23.250;2023-02-08T13:58:01;48670.22;;;-141.90;39.95
5298;BME280;14738;42.668;23.250;2023-02-08T14:00:32;48630.53;;;-141.90;39.99
5298;BME280;14738;42.668;23.250;2023-02-08T14:03:19;48646.41;;;-141.90;40.32
5298;BME280;14738;42.668;23.250;2023-02-08T14:17:21;48642.44;;;-141.90;40.68
5298;BME280;14738;42.668;23.250;2023-02-08T14:20:04;48676.19;;;-141.90;41.04
5298;BME280;14738;42.668;23.250;2023-02-08T14:22:38;48646.41;;;-141.90;41.19
5298;BME280;14738;42.668;23.250;2023-02-08T14:25:17;48664.28;;;-141.90;41.68
5298;BME280;14738;42.668;23.250;2023-02-08T14:30:22;48672.22;;;-141.90;41.94
5298;BME280;14738;42.668;23.250;2023-02-08T14:33:07;48660.31;;;-141.90;42.24
5298;BME280;14738;42.668;23.250;2023-02-08T14:35:40;48692.06;;;-141.90;42.26
5298;BME280;14738;42.668;23.250;2023-02-08T14:40:54;48696.03;;;-141.90;41.93
5298;BME280;14738;42.668;23.250;2023-02-08T14:43:33;48668.25;;;-141.90;42.02
5298;BME280;14738;42.668;23.250;2023-02-08T14:49:12;48672.22;;;-141.90;42.51
5298;BME280;14738;42.668;23.250;2023-02-08T14:51:42;48672.22;;;-141.90;42.31
5298;BME280;14738;42.668;23.250;2023-02-08T14:56:55;48650.38;;;-141.90;42.56
5298;BME280;14738;42.668;23.250;2023-02-08T14:59:25;48678.16;;;-141.90;43.20
5298;BME280;14738;42.668;23.250;2023-02-08T15:01:59;48666.25;;;-141.90;43.92
5298;BME280;14738;42.668;23.250;2023-02-08T15:04:25;48678.16;;;-141.90;44.27
5298;BME280;14738;42.668;23.250;2023-02-08T15:09:40;48684.13;;;-141.90;45.26
5298;BME280;14738;42.668;23.250;2023-02-08T15:12:14;48676.19;;;-141.90;45.75
5298;BME280;14738;42.668;23.250;2023-02-08T15:14:41;48676.19;;;-141.90;46.14
5298;BME280;14738;42.668;23.250;2023-02-08T15:17:19;48680.16;;;-141.90;45.85
5298;BME280;14738;42.668;23.250;2023-02-08T15:19:46;48684.13;;;-141.90;46.03
5298;BME280;14738;42.668;23.250;2023-02-08T15:25:01;48717.88;;;-141.90;45.97
5298;BME280;14738;42.668;23.250;2023-02-08T15:27:29;48688.09;;;-141.90;46.05